Time,TemperatureF,DewpointF,PressureIn,WindDirection,WindDirectionDegrees,WindSpeedMPH,WindSpeedGustMPH,Humidity,HourlyPrecipIn,Conditions,Clouds,dailyrainin,SoftwareType,DateUTC
2013-05-01 00:01:00,34.3,31.7,30.01,NNE,22,2.0,2.0,90,0.00,,,0.00,Weather View 32 v70,2013-05-01 08:01:00,
2013-05-01 00:06:00,34.2,31.5,29.99,NNE,22,2.0,2.0,90,0.00,,,0.00,Weather View 32 v70,2013-05-01 08:06:00,
2013-05-01 00:11:00,34.2,31.5,29.99,NNE,22,2.0,2.0,90,0.00,,,0.00,Weather View 32 v70,2013-05-01 08:11:00,
2013-05-01 00:16:00,34.0,31.4,29.99,NNE,22,2.0,2.0,90,0.00,,,0.00,Weather View 32 v70,2013-05-01 08:16:00,
2013-05-01 00:21:00,33.6,31.0,29.99,North,0,2.0,2.0,90,0.00,,,0.00,Weather View 32 v70,2013-05-01 08:21:00,
2013-05-01 00:26:00,33.4,30.8,29.99,NNE,22,2.0,2.0,90,0.00,,,0.00,Weather View 32 v70,2013-05-01 08:26:00,
2013-05-01 00:31:00,33.4,30.8,29.99,North,0,2.0,2.0,90,0.00,,,0.00,Weather View 32 v70,2013-05-01 08:31:00,
2013-05-01 00:36:00,33.3,30.6,29.99,North,0,2.0,2.0,90,0.00,,,0.00,Weather View 32 v70,2013-05-01 08:36:00,
2013-05-01 00:41:00,33.3,30.6,29.99,NE,45,2.0,2.0,90,0.00,,,0.00,Weather View 32 v70,2013-05-01 08:41:00,
2013-05-01 00:46:00,32.9,30.3,29.98,NE,45,2.0,2.0,90,0.00,,,0.00,Weather View 32 v70,2013-05-01 08:46:00,
2013-05-01 00:51:00,32.7,30.1,29.98,North,0,2.0,2.0,90,0.00,,,0.00,Weather View 32 v70,2013-05-01 08:51:00,
2013-05-01 00:56:00,32.9,30.3,29.98,NNW,338,1.0,2.0,90,0.00,,,0.00,Weather View 32 v70,2013-05-01 08:56:00,
2013-05-01 01:01:00,32.7,30.4,29.98,NNE,22,1.0,2.0,91,0.00,,,0.00,Weather View 32 v70,2013-05-01 09:01:00,
2013-05-01 01:06:00,32.5,30.2,29.98,NE,45,1.0,2.0,91,0.00,,,0.00,Weather View 32 v70,2013-05-01 09:06:00,
2013-05-01 01:11:00,32.5,30.2,29.98,NE,45,1.0,2.0,91,0.00,,,0.00,Weather View 32 v70,2013-05-01 09:11:00,
2013-05-01 01:16:00,32.4,30.0,29.98,NE,45,2.0,2.0,91,0.00,,,0.00,Weather View 32 v70,2013-05-01 09:16:00,
2013-05-01 01:21:00,32.0,29.7,29.98,ENE,68,2.0,2.0,91,0.00,,,0.00,Weather View 32 v70,2013-05-01 09:21:00,
2013-05-01 01:26:00,31.8,29.5,29.97,NNE,22,1.0,2.0,91,0.00,,,0.00,Weather View 32 v70,2013-05-01 09:26:00,
2013-05-01 01:31:00,31.6,29.3,29.97,ENE,68,1.0,2.0,91,0.00,,,0.00,Weather View 32 v70,2013-05-01 09:31:00,
2013-05-01 01:36:00,31.5,29.1,29.97,NE,45,1.0,2.0,91,0.00,,,0.00,Weather View 32 v70,2013-05-01 09:36:00,
2013-05-01 01:41:00,31.3,29.0,29.97,NE,45,1.0,2.0,91,0.00,,,0.00,Weather View 32 v70,2013-05-01 09:41:00,
2013-05-01 01:46:00,31.1,28.8,29.97,NE,45,1.0,2.0,91,0.00,,,0.00,Weather View 32 v70,2013-05-01 09:46:00,
2013-05-01 01:51:00,31.1,28.8,29.97,NNE,22,1.0,2.0,91,0.00,,,0.00,Weather View 32 v70,2013-05-01 09:51:00,
2013-05-01 01:56:00,30.7,28.4,29.97,ENE,68,1.0,2.0,91,0.00,,,0.00,Weather View 32 v70,2013-05-01 09:56:00,
2013-05-01 02:01:00,30.6,28.2,29.97,NNE,22,1.0,2.0,91,0.00,,,0.00,Weather View 32 v70,2013-05-01 10:01:00,
2013-05-01 02:06:00,30.4,28.1,29.96,NE,45,1.0,2.0,91,0.00,,,0.00,Weather View 32 v70,2013-05-01 10:06:00,
2013-05-01 02:11:00,30.4,28.1,29.96,NE,45,1.0,2.0,91,0.00,,,0.00,Weather View 32 v70,2013-05-01 10:11:00,
2013-05-01 02:16:00,30.0,27.7,29.96,NNE,22,0.0,2.0,91,0.00,,,0.00,Weather View 32 v70,2013-05-01 10:16:00,
2013-05-01 02:21:00,30.0,27.7,29.96,North,0,1.0,2.0,91,0.00,,,0.00,Weather View 32 v70,2013-05-01 10:21:00,
2013-05-01 02:26:00,29.8,27.5,29.95,NE,45,0.0,1.0,91,0.00,,,0.00,Weather View 32 v70,2013-05-01 10:26:00,
2013-05-01 02:31:00,29.7,27.4,29.95,NE,45,0.0,1.0,91,0.00,,,0.00,Weather View 32 v70,2013-05-01 10:31:00,
2013-05-01 02:36:00,29.7,27.4,29.95,NNE,22,0.0,1.0,91,0.00,,,0.00,Weather View 32 v70,2013-05-01 10:36:00,
2013-05-01 02:41:00,29.7,27.6,29.95,ENE,68,1.0,1.0,92,0.00,,,0.00,Weather View 32 v70,2013-05-01 10:41:00,
2013-05-01 02:46:00,29.7,27.6,29.93,ENE,68,1.0,1.0,92,0.00,,,0.00,Weather View 32 v70,2013-05-01 10:46:00,
2013-05-01 02:51:00,29.7,27.6,29.93,NE,45,1.0,1.0,92,0.00,,,0.00,Weather View 32 v70,2013-05-01 10:51:00,
2013-05-01 02:56:00,29.3,27.3,29.93,NE,45,1.0,1.0,92,0.00,,,0.00,Weather View 32 v70,2013-05-01 10:56:00,
2013-05-01 03:01:00,29.3,27.3,29.93,NE,45,1.0,1.0,92,0.00,,,0.00,Weather View 32 v70,2013-05-01 11:01:00,
2013-05-01 03:06:00,29.3,27.3,29.93,NE,45,1.0,1.0,92,0.00,,,0.00,Weather View 32 v70,2013-05-01 11:06:00,
2013-05-01 03:11:00,29.3,27.3,29.93,NE,45,1.0,1.0,92,0.00,,,0.00,Weather View 32 v70,2013-05-01 11:11:00,
2013-05-01 03:19:00,29.3,27.3,29.93,NE,45,0.0,1.0,92,0.00,,,0.00,Weather View 32 v70,2013-05-01 11:19:00,
2013-05-01 03:24:00,28.9,26.6,29.93,NE,45,1.0,1.0,91,0.00,,,0.00,Weather View 32 v70,2013-05-01 11:24:00,
2013-05-01 03:29:00,28.9,26.6,29.92,NE,45,1.0,1.0,91,0.00,,,0.00,Weather View 32 v70,2013-05-01 11:29:00,
2013-05-01 03:34:00,28.6,26.3,29.92,NE,45,1.0,1.0,91,0.00,,,0.00,Weather View 32 v70,2013-05-01 11:34:00,
2013-05-01 03:39:00,28.6,26.6,29.92,NE,45,1.0,1.0,92,0.00,,,0.00,Weather View 32 v70,2013-05-01 11:39:00,
2013-05-01 03:44:00,28.4,26.4,29.92,NE,45,1.0,1.0,92,0.00,,,0.00,Weather View 32 v70,2013-05-01 11:44:00,
2013-05-01 03:49:00,28.4,26.4,29.92,NE,45,1.0,1.0,92,0.00,,,0.00,Weather View 32 v70,2013-05-01 11:49:00,
2013-05-01 03:54:00,28.6,26.6,29.92,NE,45,1.0,1.0,92,0.00,,,0.00,Weather View 32 v70,2013-05-01 11:54:00,
2013-05-01 03:59:00,28.9,26.9,29.92,NE,45,1.0,1.0,92,0.00,,,0.00,Weather View 32 v70,2013-05-01 11:59:00,
2013-05-01 04:04:00,28.9,26.9,29.91,NE,45,2.0,2.0,92,0.00,,,0.00,Weather View 32 v70,2013-05-01 12:04:00,
2013-05-01 04:09:00,28.9,26.9,29.91,NE,45,2.0,2.0,92,0.00,,,0.00,Weather View 32 v70,2013-05-01 12:09:00,
2013-05-01 04:14:00,29.3,27.3,29.91,NE,45,2.0,2.0,92,0.00,,,0.00,Weather View 32 v70,2013-05-01 12:14:00,
2013-05-01 04:19:00,29.3,27.3,29.91,NE,45,2.0,2.0,92,0.00,,,0.00,Weather View 32 v70,2013-05-01 12:19:00,
2013-05-01 04:24:00,29.3,27.3,29.90,NE,45,2.0,2.0,92,0.00,,,0.00,Weather View 32 v70,2013-05-01 12:24:00,
2013-05-01 04:29:00,29.3,27.3,29.90,NE,45,2.0,2.0,92,0.00,,,0.00,Weather View 32 v70,2013-05-01 12:29:00,
2013-05-01 04:34:00,29.7,27.6,29.90,NE,45,2.0,2.0,92,0.00,,,0.00,Weather View 32 v70,2013-05-01 12:34:00,
2013-05-01 04:39:00,29.7,27.6,29.90,NE,45,2.0,2.0,92,0.00,,,0.00,Weather View 32 v70,2013-05-01 12:39:00,
2013-05-01 04:44:00,29.7,27.6,29.90,NE,45,2.0,2.0,92,0.00,,,0.00,Weather View 32 v70,2013-05-01 12:44:00,
2013-05-01 04:49:00,29.7,27.6,29.90,NE,45,2.0,2.0,92,0.00,,,0.00,Weather View 32 v70,2013-05-01 12:49:00,
2013-05-01 04:54:00,29.7,27.4,29.90,NE,45,2.0,2.0,91,0.00,,,0.00,Weather View 32 v70,2013-05-01 12:54:00,
2013-05-01 04:59:00,29.7,27.4,29.90,NE,45,2.0,2.0,91,0.00,,,0.00,Weather View 32 v70,2013-05-01 12:59:00,
2013-05-01 05:04:00,29.7,27.4,29.90,NE,45,2.0,2.0,91,0.00,,,0.00,Weather View 32 v70,2013-05-01 13:04:00,
2013-05-01 05:09:00,29.7,27.4,29.90,NE,45,2.0,2.0,91,0.00,,,0.00,Weather View 32 v70,2013-05-01 13:09:00,
2013-05-01 05:14:00,29.7,27.4,29.90,NE,45,2.0,2.0,91,0.00,,,0.00,Weather View 32 v70,2013-05-01 13:14:00,
2013-05-01 05:19:00,29.5,27.2,29.90,NE,45,2.0,2.0,91,0.00,,,0.00,Weather View 32 v70,2013-05-01 13:19:00,
2013-05-01 05:24:00,29.7,27.4,29.88,NE,45,2.0,2.0,91,0.00,,,0.00,Weather View 32 v70,2013-05-01 13:24:00,
2013-05-01 05:29:00,29.7,27.1,29.88,NE,45,2.0,2.0,90,0.00,,,0.00,Weather View 32 v70,2013-05-01 13:29:00,
2013-05-01 05:34:00,29.7,27.1,29.88,NE,45,2.0,2.0,90,0.00,,,0.00,Weather View 32 v70,2013-05-01 13:34:00,
2013-05-01 05:39:00,29.8,27.3,29.88,NE,45,2.0,2.0,90,0.00,,,0.00,Weather View 32 v70,2013-05-01 13:39:00,
2013-05-01 05:44:00,29.8,27.3,29.88,NE,45,2.0,2.0,90,0.00,,,0.00,Weather View 32 v70,2013-05-01 13:44:00,
2013-05-01 05:49:00,29.8,27.3,29.88,NE,45,2.0,2.0,90,0.00,,,0.00,Weather View 32 v70,2013-05-01 13:49:00,
2013-05-01 05:54:00,30.0,27.4,29.88,NE,45,2.0,2.0,90,0.00,,,0.00,Weather View 32 v70,2013-05-01 13:54:00,
2013-05-01 05:59:00,30.0,27.4,29.88,NE,45,2.0,2.0,90,0.00,,,0.00,Weather View 32 v70,2013-05-01 13:59:00,
2013-05-01 06:04:00,30.4,27.8,29.88,NE,45,2.0,2.0,90,0.00,,,0.00,Weather View 32 v70,2013-05-01 14:04:00,
2013-05-01 06:09:00,30.4,27.8,29.88,NE,45,2.0,2.0,90,0.00,,,0.00,Weather View 32 v70,2013-05-01 14:09:00,
2013-05-01 06:14:00,30.2,27.6,29.88,NE,45,2.0,2.0,90,0.00,,,0.00,Weather View 32 v70,2013-05-01 14:14:00,
2013-05-01 06:19:00,30.4,27.8,29.88,NE,45,2.0,2.0,90,0.00,,,0.00,Weather View 32 v70,2013-05-01 14:19:00,
2013-05-01 06:24:00,30.4,27.8,29.90,NE,45,2.0,2.0,90,0.00,,,0.00,Weather View 32 v70,2013-05-01 14:24:00,
2013-05-01 06:29:00,30.7,27.9,29.90,NE,45,2.0,2.0,89,0.00,,,0.00,Weather View 32 v70,2013-05-01 14:29:00,
2013-05-01 06:34:00,30.6,27.7,29.90,NE,45,2.0,2.0,89,0.00,,,0.00,Weather View 32 v70,2013-05-01 14:34:00,
2013-05-01 06:39:00,30.7,27.9,29.90,NE,45,2.0,2.0,89,0.00,,,0.00,Weather View 32 v70,2013-05-01 14:39:00,
2013-05-01 06:44:00,31.1,28.2,29.92,NE,45,2.0,2.0,89,0.00,,,0.00,Weather View 32 v70,2013-05-01 14:44:00,
2013-05-01 06:49:00,30.9,27.8,29.92,NE,45,2.0,2.0,88,0.00,,,0.00,Weather View 32 v70,2013-05-01 14:49:00,
2013-05-01 06:54:00,31.1,28.0,29.92,NE,45,2.0,2.0,88,0.00,,,0.00,Weather View 32 v70,2013-05-01 14:54:00,
2013-05-01 06:59:00,31.3,28.1,29.92,NE,45,2.0,2.0,88,0.00,,,0.00,Weather View 32 v70,2013-05-01 14:59:00,
2013-05-01 07:04:00,31.5,28.3,29.91,NE,45,2.0,2.0,88,0.00,,,0.00,Weather View 32 v70,2013-05-01 15:04:00,
2013-05-01 07:09:00,31.8,28.7,29.91,NE,45,2.0,2.0,88,0.00,,,0.00,Weather View 32 v70,2013-05-01 15:09:00,
2013-05-01 07:14:00,31.8,28.4,29.91,NE,45,2.0,2.0,87,0.00,,,0.00,Weather View 32 v70,2013-05-01 15:14:00,
2013-05-01 07:19:00,31.8,28.4,29.91,NE,45,2.0,2.0,87,0.00,,,0.00,Weather View 32 v70,2013-05-01 15:19:00,
2013-05-01 07:24:00,32.0,28.6,29.90,NE,45,3.0,3.0,87,0.00,,,0.00,Weather View 32 v70,2013-05-01 15:24:00,
2013-05-01 07:29:00,32.2,28.7,29.90,NE,45,3.0,3.0,87,0.00,,,0.00,Weather View 32 v70,2013-05-01 15:29:00,
2013-05-01 07:34:00,32.5,28.8,29.90,NE,45,3.0,3.0,86,0.00,,,0.00,Weather View 32 v70,2013-05-01 15:34:00,
2013-05-01 07:39:00,32.7,29.0,29.90,NE,45,3.0,3.0,86,0.00,,,0.00,Weather View 32 v70,2013-05-01 15:39:00,
2013-05-01 07:44:00,32.9,28.9,29.90,NE,45,3.0,3.0,85,0.00,,,0.00,Weather View 32 v70,2013-05-01 15:44:00,
2013-05-01 07:49:00,33.3,28.9,29.90,NE,45,3.0,3.0,84,0.00,,,0.00,Weather View 32 v70,2013-05-01 15:49:00,
2013-05-01 07:54:00,33.6,29.3,29.90,NE,45,3.0,3.0,84,0.00,,,0.00,Weather View 32 v70,2013-05-01 15:54:00,
2013-05-01 07:59:00,34.2,29.5,29.90,NE,45,3.0,3.0,83,0.00,,,0.00,Weather View 32 v70,2013-05-01 15:59:00,
2013-05-01 08:04:00,34.9,29.9,29.90,NNE,22,4.0,4.0,82,0.00,,,0.00,Weather View 32 v70,2013-05-01 16:04:00,
2013-05-01 08:09:00,35.1,30.1,29.90,NNW,338,4.0,4.0,82,0.00,,,0.00,Weather View 32 v70,2013-05-01 16:09:00,
2013-05-01 08:14:00,35.6,30.3,29.90,NNE,22,4.0,4.0,81,0.00,,,0.00,Weather View 32 v70,2013-05-01 16:14:00,
2013-05-01 08:19:00,36.0,30.7,29.90,NNE,22,4.0,4.0,81,0.00,,,0.00,Weather View 32 v70,2013-05-01 16:19:00,
2013-05-01 08:24:00,36.3,31.0,29.89,North,0,4.0,4.0,81,0.00,,,0.00,Weather View 32 v70,2013-05-01 16:24:00,
2013-05-01 08:29:00,36.5,30.9,29.89,East,90,4.0,4.0,80,0.00,,,0.00,Weather View 32 v70,2013-05-01 16:29:00,
2013-05-01 08:34:00,36.5,30.9,29.89,North,0,4.0,4.0,80,0.00,,,0.00,Weather View 32 v70,2013-05-01 16:34:00,
2013-05-01 08:39:00,36.5,30.9,29.89,NNE,22,5.0,5.0,80,0.00,,,0.00,Weather View 32 v70,2013-05-01 16:39:00,
2013-05-01 08:44:00,36.9,31.3,29.89,North,0,5.0,5.0,80,0.00,,,0.00,Weather View 32 v70,2013-05-01 16:44:00,
2013-05-01 08:49:00,36.9,31.0,29.89,NNE,22,5.0,5.0,79,0.00,,,0.00,Weather View 32 v70,2013-05-01 16:49:00,
2013-05-01 08:54:00,37.0,30.8,29.89,North,0,5.0,5.0,78,0.00,,,0.00,Weather View 32 v70,2013-05-01 16:54:00,
2013-05-01 09:00:00,37.6,31.3,29.89,North,0,6.0,6.0,78,0.00,,,0.00,Weather View 32 v70,2013-05-01 17:00:00,
2013-05-01 09:05:00,37.8,31.2,29.87,NNE,22,6.0,6.0,77,0.00,,,0.00,Weather View 32 v70,2013-05-01 17:05:00,
2013-05-01 09:10:00,37.6,31.0,29.87,NW,315,5.0,6.0,77,0.00,,,0.00,Weather View 32 v70,2013-05-01 17:10:00,
2013-05-01 09:15:00,37.8,31.2,29.87,NNW,338,5.0,6.0,77,0.00,,,0.00,Weather View 32 v70,2013-05-01 17:15:00,
2013-05-01 09:20:00,38.1,31.9,29.87,NNE,22,6.0,6.0,78,0.00,,,0.00,Weather View 32 v70,2013-05-01 17:20:00,
2013-05-01 09:25:00,39.0,32.1,29.86,North,0,5.0,6.0,76,0.00,,,0.00,Weather View 32 v70,2013-05-01 17:25:00,
2013-05-01 09:30:00,39.2,32.3,29.86,NNE,22,5.0,6.0,76,0.00,,,0.00,Weather View 32 v70,2013-05-01 17:30:00,
2013-05-01 09:35:00,39.0,32.1,29.86,North,0,5.0,6.0,76,0.00,,,0.00,Weather View 32 v70,2013-05-01 17:35:00,
2013-05-01 09:40:00,39.7,32.5,29.86,North,0,5.0,6.0,75,0.00,,,0.00,Weather View 32 v70,2013-05-01 17:40:00,
2013-05-01 09:45:00,40.5,32.8,29.85,NNW,338,5.0,6.0,74,0.00,,,0.00,Weather View 32 v70,2013-05-01 17:45:00,
2013-05-01 09:50:00,40.3,32.3,29.85,NNW,338,6.0,6.0,73,0.00,,,0.00,Weather View 32 v70,2013-05-01 17:50:00,
2013-05-01 09:55:00,41.9,32.8,29.85,NNW,338,6.0,6.0,70,0.00,,,0.00,Weather View 32 v70,2013-05-01 17:55:00,
2013-05-01 10:00:00,41.7,31.9,29.85,NNW,338,6.0,6.0,68,0.00,,,0.00,Weather View 32 v70,2013-05-01 18:00:00,
2013-05-01 10:05:00,41.0,31.6,29.84,NNE,22,5.0,6.0,69,0.00,,,0.00,Weather View 32 v70,2013-05-01 18:05:00,
2013-05-01 10:10:00,41.5,31.8,29.84,NNE,22,6.0,6.0,68,0.00,,,0.00,Weather View 32 v70,2013-05-01 18:10:00,
2013-05-01 10:15:00,40.8,31.4,29.84,NE,45,6.0,6.0,69,0.00,,,0.00,Weather View 32 v70,2013-05-01 18:15:00,
2013-05-01 10:20:00,40.8,31.4,29.84,NNE,22,5.0,6.0,69,0.00,,,0.00,Weather View 32 v70,2013-05-01 18:20:00,
2013-05-01 10:25:00,41.5,31.0,29.84,NW,315,6.0,6.0,66,0.00,,,0.00,Weather View 32 v70,2013-05-01 18:25:00,
2013-05-01 10:30:00,41.9,31.4,29.84,NNE,22,6.0,6.0,66,0.00,,,0.00,Weather View 32 v70,2013-05-01 18:30:00,
2013-05-01 10:35:00,42.1,30.8,29.84,NNE,22,6.0,7.0,64,0.00,,,0.00,Weather View 32 v70,2013-05-01 18:35:00,
2013-05-01 10:40:00,41.9,30.6,29.84,NNE,22,6.0,7.0,64,0.00,,,0.00,Weather View 32 v70,2013-05-01 18:40:00,
2013-05-01 10:45:00,41.7,30.4,29.83,NNE,22,6.0,7.0,64,0.00,,,0.00,Weather View 32 v70,2013-05-01 18:45:00,
2013-05-01 10:50:00,41.7,29.6,29.83,NNE,22,6.0,7.0,62,0.00,,,0.00,Weather View 32 v70,2013-05-01 18:50:00,
2013-05-01 10:55:00,43.0,30.4,29.83,NNE,22,0.0,7.0,61,0.00,,,0.00,Weather View 32 v70,2013-05-01 18:55:00,
2013-05-01 11:00:00,43.5,30.5,29.83,NNE,22,0.0,7.0,60,0.00,,,0.00,Weather View 32 v70,2013-05-01 19:00:00,
2013-05-01 11:05:00,43.7,30.7,29.82,NNE,22,0.0,7.0,60,0.00,,,0.00,Weather View 32 v70,2013-05-01 19:05:00,
2013-05-01 11:10:00,45.1,30.4,29.82,NNE,22,0.0,7.0,56,0.00,,,0.00,Weather View 32 v70,2013-05-01 19:10:00,
2013-05-01 11:15:00,45.1,30.8,29.82,NNE,22,0.0,7.0,57,0.00,,,0.00,Weather View 32 v70,2013-05-01 19:15:00,
2013-05-01 11:20:00,45.0,30.2,29.82,NNE,22,0.0,7.0,56,0.00,,,0.00,Weather View 32 v70,2013-05-01 19:20:00,
2013-05-01 11:25:00,45.3,30.1,29.81,NNE,22,0.0,7.0,55,0.00,,,0.00,Weather View 32 v70,2013-05-01 19:25:00,
2013-05-01 11:30:00,46.2,30.5,29.81,NNE,22,0.0,7.0,54,0.00,,,0.00,Weather View 32 v70,2013-05-01 19:30:00,
2013-05-01 11:35:00,49.6,31.7,29.81,NNE,22,0.0,6.0,50,0.00,,,0.00,Weather View 32 v70,2013-05-01 19:35:00,
2013-05-01 11:40:00,50.5,31.0,29.81,NNE,22,0.0,6.0,47,0.00,,,0.00,Weather View 32 v70,2013-05-01 19:40:00,
2013-05-01 11:45:00,49.1,30.2,29.80,NNE,22,0.0,6.0,48,0.00,,,0.00,Weather View 32 v70,2013-05-01 19:45:00,
2013-05-01 11:50:00,49.8,30.9,29.80,NNE,22,0.0,6.0,48,0.00,,,0.00,Weather View 32 v70,2013-05-01 19:50:00,
2013-05-01 11:55:00,47.8,29.6,29.80,NNE,22,0.0,0.0,49,0.00,,,0.00,Weather View 32 v70,2013-05-01 19:55:00,
2013-05-01 12:00:00,47.7,29.4,29.80,NNE,22,0.0,0.0,49,0.00,,,0.00,Weather View 32 v70,2013-05-01 20:00:00,
2013-05-01 12:05:00,47.5,29.2,29.80,NNE,22,0.0,0.0,49,0.00,,,0.00,Weather View 32 v70,2013-05-01 20:05:00,
2013-05-01 12:10:00,47.5,29.2,29.80,NNE,22,0.0,0.0,49,0.00,,,0.00,Weather View 32 v70,2013-05-01 20:10:00,
2013-05-01 12:15:00,48.4,29.0,29.80,NNE,22,0.0,0.0,47,0.00,,,0.00,Weather View 32 v70,2013-05-01 20:15:00,
2013-05-01 12:20:00,48.7,28.3,29.80,NNE,22,0.0,0.0,45,0.00,,,0.00,Weather View 32 v70,2013-05-01 20:20:00,
2013-05-01 12:25:00,49.8,29.3,29.79,NNE,22,0.0,0.0,45,0.00,,,0.00,Weather View 32 v70,2013-05-01 20:25:00,
2013-05-01 12:30:00,48.4,28.5,29.79,NNE,22,0.0,0.0,46,0.00,,,0.00,Weather View 32 v70,2013-05-01 20:30:00,
2013-05-01 12:35:00,47.7,28.4,29.79,NNE,22,0.0,0.0,47,0.00,,,0.00,Weather View 32 v70,2013-05-01 20:35:00,
2013-05-01 12:40:00,46.4,27.2,29.79,NNE,22,0.0,0.0,47,0.00,,,0.00,Weather View 32 v70,2013-05-01 20:40:00,
2013-05-01 12:45:00,46.8,27.6,29.80,NNE,22,0.0,0.0,47,0.00,,,0.00,Weather View 32 v70,2013-05-01 20:45:00,
2013-05-01 12:50:00,48.0,28.2,29.80,NNE,22,0.0,0.0,46,0.00,,,0.00,Weather View 32 v70,2013-05-01 20:50:00,
2013-05-01 12:55:00,48.6,28.1,29.80,NNE,22,0.0,0.0,45,0.00,,,0.00,Weather View 32 v70,2013-05-01 20:55:00,
2013-05-01 13:00:00,49.1,28.1,29.80,NNE,22,0.0,0.0,44,0.00,,,0.00,Weather View 32 v70,2013-05-01 21:00:00,
2013-05-01 13:05:00,48.7,27.2,29.79,NNE,22,0.0,0.0,43,0.00,,,0.00,Weather View 32 v70,2013-05-01 21:05:00,
2013-05-01 13:10:00,48.0,27.1,29.79,NNE,22,0.0,0.0,44,0.00,,,0.00,Weather View 32 v70,2013-05-01 21:10:00,
2013-05-01 13:15:00,47.8,26.9,29.79,NNE,22,0.0,0.0,44,0.00,,,0.00,Weather View 32 v70,2013-05-01 21:15:00,
2013-05-01 13:20:00,48.4,27.4,29.79,NNE,22,0.0,0.0,44,0.00,,,0.00,Weather View 32 v70,2013-05-01 21:20:00,
2013-05-01 13:25:00,48.0,27.1,29.80,NNE,22,0.0,0.0,44,0.00,,,0.00,Weather View 32 v70,2013-05-01 21:25:00,
2013-05-01 13:30:00,48.4,28.5,29.80,NNE,22,0.0,0.0,46,0.00,,,0.00,Weather View 32 v70,2013-05-01 21:30:00,
2013-05-01 13:36:00,48.0,27.7,29.80,NNE,22,0.0,0.0,45,0.00,,,0.00,Weather View 32 v70,2013-05-01 21:36:00,
2013-05-01 13:41:00,48.0,28.7,29.80,NNE,22,0.0,0.0,47,0.00,,,0.00,Weather View 32 v70,2013-05-01 21:41:00,
2013-05-01 13:46:00,47.8,28.0,29.80,NNE,22,0.0,0.0,46,0.00,,,0.00,Weather View 32 v70,2013-05-01 21:46:00,
2013-05-01 13:51:00,47.7,27.9,29.80,NNE,22,0.0,0.0,46,0.00,,,0.00,Weather View 32 v70,2013-05-01 21:51:00,
2013-05-01 13:56:00,47.7,28.4,29.80,NNE,22,0.0,0.0,47,0.00,,,0.00,Weather View 32 v70,2013-05-01 21:56:00,
2013-05-01 14:01:00,48.0,28.7,29.80,NNE,22,0.0,0.0,47,0.00,,,0.00,Weather View 32 v70,2013-05-01 22:01:00,
2013-05-01 14:06:00,48.7,29.4,29.79,NNE,22,0.0,0.0,47,0.00,,,0.00,Weather View 32 v70,2013-05-01 22:06:00,
2013-05-01 14:11:00,48.7,30.4,29.79,NNE,22,0.0,0.0,49,0.00,,,0.00,Weather View 32 v70,2013-05-01 22:11:00,
2013-05-01 14:16:00,49.5,30.6,29.79,NNE,22,0.0,0.0,48,0.00,,,0.00,Weather View 32 v70,2013-05-01 22:16:00,
2013-05-01 14:21:00,49.3,29.9,29.79,NNE,22,0.0,0.0,47,0.00,,,0.00,Weather View 32 v70,2013-05-01 22:21:00,
2013-05-01 14:26:00,49.1,30.2,29.79,NNE,22,0.0,0.0,48,0.00,,,0.00,Weather View 32 v70,2013-05-01 22:26:00,
2013-05-01 14:31:00,49.3,30.4,29.79,NNE,22,0.0,0.0,48,0.00,,,0.00,Weather View 32 v70,2013-05-01 22:31:00,
2013-05-01 14:36:00,52.0,30.1,29.79,NNE,22,0.0,0.0,43,0.00,,,0.00,Weather View 32 v70,2013-05-01 22:36:00,
2013-05-01 14:41:00,51.6,30.9,29.79,NNE,22,0.0,0.0,45,0.00,,,0.00,Weather View 32 v70,2013-05-01 22:41:00,
2013-05-01 14:46:00,52.0,30.1,29.79,NNE,22,0.0,0.0,43,0.00,,,0.00,Weather View 32 v70,2013-05-01 22:46:00,
2013-05-01 14:51:00,52.9,31.0,29.79,NNE,22,0.0,0.0,43,0.00,,,0.00,Weather View 32 v70,2013-05-01 22:51:00,
2013-05-01 14:56:00,53.4,30.9,29.79,NNE,22,0.0,0.0,42,0.00,,,0.00,Weather View 32 v70,2013-05-01 22:56:00,
2013-05-01 15:01:00,52.9,30.4,29.79,NNE,22,0.0,0.0,42,0.00,,,0.00,Weather View 32 v70,2013-05-01 23:01:00,
2013-05-01 15:06:00,52.0,30.1,29.79,NNE,22,0.0,0.0,43,0.00,,,0.00,Weather View 32 v70,2013-05-01 23:06:00,
2013-05-01 15:11:00,52.2,29.7,29.79,NNE,22,0.0,0.0,42,0.00,,,0.00,Weather View 32 v70,2013-05-01 23:11:00,
2013-05-01 15:16:00,51.6,29.8,29.79,NNE,22,0.0,0.0,43,0.00,,,0.00,Weather View 32 v70,2013-05-01 23:16:00,
2013-05-01 15:21:00,53.4,30.3,29.79,NNE,22,0.0,0.0,41,0.00,,,0.00,Weather View 32 v70,2013-05-01 23:21:00,
2013-05-01 15:26:00,51.4,29.1,29.79,NNE,22,0.0,0.0,42,0.00,,,0.00,Weather View 32 v70,2013-05-01 23:26:00,
2013-05-01 15:31:00,51.8,28.8,29.79,NNE,22,0.0,0.0,41,0.00,,,0.00,Weather View 32 v70,2013-05-01 23:31:00,
2013-05-01 15:36:00,52.0,29.6,29.79,NNE,22,0.0,0.0,42,0.00,,,0.00,Weather View 32 v70,2013-05-01 23:36:00,
2013-05-01 15:41:00,53.1,29.9,29.79,NNE,22,0.0,0.0,41,0.00,,,0.00,Weather View 32 v70,2013-05-01 23:41:00,
2013-05-01 15:46:00,49.8,28.7,29.79,NNE,22,0.0,0.0,44,0.00,,,0.00,Weather View 32 v70,2013-05-01 23:46:00,
2013-05-01 15:51:00,48.6,28.1,29.79,NNE,22,0.0,0.0,45,0.00,,,0.00,Weather View 32 v70,2013-05-01 23:51:00,
2013-05-01 15:56:00,48.7,28.3,29.79,NNE,22,0.0,0.0,45,0.00,,,0.00,Weather View 32 v70,2013-05-01 23:56:00,
2013-05-01 16:01:00,48.4,28.5,29.79,NNE,22,0.0,0.0,46,0.00,,,0.00,Weather View 32 v70,2013-05-02 00:01:00,
2013-05-01 16:07:00,47.8,28.0,29.79,NNE,22,0.0,0.0,46,0.00,,,0.00,Weather View 32 v70,2013-05-02 00:07:00,
2013-05-01 16:12:00,47.1,27.9,29.79,NNE,22,0.0,0.0,47,0.00,,,0.00,Weather View 32 v70,2013-05-02 00:12:00,
2013-05-01 16:17:00,47.1,27.9,29.79,NNE,22,0.0,0.0,47,0.00,,,0.00,Weather View 32 v70,2013-05-02 00:17:00,
2013-05-01 16:23:00,47.1,27.9,29.79,NNE,22,0.0,0.0,47,0.00,,,0.00,Weather View 32 v70,2013-05-02 00:23:00,
2013-05-01 16:28:00,46.9,27.7,29.78,NNE,22,0.0,0.0,47,0.00,,,0.00,Weather View 32 v70,2013-05-02 00:28:00,
2013-05-01 16:33:00,46.8,27.6,29.78,NNE,22,0.0,0.0,47,0.00,,,0.00,Weather View 32 v70,2013-05-02 00:33:00,
2013-05-01 16:38:00,46.9,27.7,29.78,NNE,22,0.0,0.0,47,0.00,,,0.00,Weather View 32 v70,2013-05-02 00:38:00,
2013-05-01 16:43:00,47.3,28.1,29.78,NNE,22,0.0,0.0,47,0.00,,,0.00,Weather View 32 v70,2013-05-02 00:43:00,
2013-05-01 16:48:00,47.1,27.4,29.79,NNE,22,0.0,0.0,46,0.00,,,0.00,Weather View 32 v70,2013-05-02 00:48:00,
2013-05-01 16:53:00,47.1,27.9,29.79,NNE,22,0.0,0.0,47,0.00,,,0.00,Weather View 32 v70,2013-05-02 00:53:00,
2013-05-01 16:58:00,47.3,28.1,29.79,NNE,22,0.0,0.0,47,0.00,,,0.00,Weather View 32 v70,2013-05-02 00:58:00,
2013-05-01 17:03:00,47.5,28.2,29.79,NNE,22,0.0,0.0,47,0.00,,,0.00,Weather View 32 v70,2013-05-02 01:03:00,
2013-05-01 17:08:00,47.7,27.9,29.78,NNE,22,0.0,0.0,46,0.00,,,0.00,Weather View 32 v70,2013-05-02 01:08:00,
2013-05-01 17:13:00,47.3,27.5,29.78,NNE,22,0.0,0.0,46,0.00,,,0.00,Weather View 32 v70,2013-05-02 01:13:00,
2013-05-01 17:18:00,47.7,27.9,29.78,NNE,22,0.0,0.0,46,0.00,,,0.00,Weather View 32 v70,2013-05-02 01:18:00,
2013-05-01 17:23:00,47.3,27.5,29.78,NNE,22,0.0,0.0,46,0.00,,,0.00,Weather View 32 v70,2013-05-02 01:23:00,
2013-05-01 17:28:00,47.3,27.5,29.78,NNE,22,0.0,0.0,46,0.00,,,0.00,Weather View 32 v70,2013-05-02 01:28:00,
2013-05-01 17:33:00,47.1,27.9,29.78,NNE,22,0.0,0.0,47,0.00,,,0.00,Weather View 32 v70,2013-05-02 01:33:00,
2013-05-01 17:38:00,46.9,27.2,29.78,NNE,22,0.0,0.0,46,0.00,,,0.00,Weather View 32 v70,2013-05-02 01:38:00,
2013-05-01 17:43:00,46.9,27.2,29.78,NNE,22,0.0,0.0,46,0.00,,,0.00,Weather View 32 v70,2013-05-02 01:43:00,
2013-05-01 17:48:00,46.9,27.7,29.78,NNE,22,0.0,0.0,47,0.00,,,0.00,Weather View 32 v70,2013-05-02 01:48:00,
2013-05-01 17:53:00,46.6,27.4,29.78,NNE,22,0.0,0.0,47,0.00,,,0.00,Weather View 32 v70,2013-05-02 01:53:00,
2013-05-01 17:58:00,46.9,27.2,29.78,NNE,22,0.0,0.0,46,0.00,,,0.00,Weather View 32 v70,2013-05-02 01:58:00,
2013-05-01 18:03:00,46.9,27.2,29.78,NNE,22,0.0,0.0,46,0.00,,,0.00,Weather View 32 v70,2013-05-02 02:03:00,
2013-05-01 18:08:00,46.9,27.2,29.78,NNE,22,0.0,0.0,46,0.00,,,0.00,Weather View 32 v70,2013-05-02 02:08:00,
2013-05-01 18:13:00,46.8,27.0,29.78,NNE,22,0.0,0.0,46,0.00,,,0.00,Weather View 32 v70,2013-05-02 02:13:00,
2013-05-01 18:18:00,46.8,27.0,29.78,NNE,22,0.0,0.0,46,0.00,,,0.00,Weather View 32 v70,2013-05-02 02:18:00,
2013-05-01 18:23:00,46.8,27.0,29.78,NNE,22,0.0,0.0,46,0.00,,,0.00,Weather View 32 v70,2013-05-02 02:23:00,
2013-05-01 18:28:00,46.6,27.4,29.78,NNE,22,0.0,0.0,47,0.00,,,0.00,Weather View 32 v70,2013-05-02 02:28:00,
2013-05-01 18:33:00,46.2,27.1,29.78,NNE,22,0.0,0.0,47,0.00,,,0.00,Weather View 32 v70,2013-05-02 02:33:00,
2013-05-01 18:38:00,46.4,26.7,29.78,NNE,22,0.0,0.0,46,0.00,,,0.00,Weather View 32 v70,2013-05-02 02:38:00,
2013-05-01 18:43:00,46.6,26.3,29.78,NNE,22,0.0,0.0,45,0.00,,,0.00,Weather View 32 v70,2013-05-02 02:43:00,
2013-05-01 18:48:00,46.9,26.7,29.79,NNE,22,0.0,0.0,45,0.00,,,0.00,Weather View 32 v70,2013-05-02 02:48:00,
2013-05-01 18:54:00,46.9,26.7,29.79,NNE,22,0.0,0.0,45,0.00,,,0.00,Weather View 32 v70,2013-05-02 02:54:00,
2013-05-01 18:59:00,46.9,27.7,29.79,NNE,22,0.0,0.0,47,0.00,,,0.00,Weather View 32 v70,2013-05-02 02:59:00,
2013-05-01 19:04:00,47.1,27.4,29.79,NNE,22,0.0,0.0,46,0.00,,,0.00,Weather View 32 v70,2013-05-02 03:04:00,
2013-05-01 19:09:00,47.1,26.8,29.79,NNE,22,0.0,0.0,45,0.00,,,0.00,Weather View 32 v70,2013-05-02 03:09:00,
2013-05-01 19:14:00,47.1,26.8,29.79,NNE,22,0.0,0.0,45,0.00,,,0.00,Weather View 32 v70,2013-05-02 03:14:00,
2013-05-01 19:19:00,46.9,26.7,29.79,NNE,22,0.0,0.0,45,0.00,,,0.00,Weather View 32 v70,2013-05-02 03:19:00,
2013-05-01 19:24:00,46.6,26.3,29.79,NNE,22,0.0,0.0,45,0.00,,,0.00,Weather View 32 v70,2013-05-02 03:24:00,
2013-05-01 19:29:00,46.6,26.9,29.80,NNE,22,0.0,0.0,46,0.00,,,0.00,Weather View 32 v70,2013-05-02 03:29:00,
2013-05-01 19:34:00,46.2,26.5,29.80,NNE,22,0.0,0.0,46,0.00,,,0.00,Weather View 32 v70,2013-05-02 03:34:00,
2013-05-01 19:39:00,45.9,26.2,29.80,NNE,22,0.0,0.0,46,0.00,,,0.00,Weather View 32 v70,2013-05-02 03:39:00,
2013-05-01 19:44:00,45.7,26.6,29.80,NNE,22,0.0,0.0,47,0.00,,,0.00,Weather View 32 v70,2013-05-02 03:44:00,
2013-05-01 19:49:00,45.5,26.9,29.80,NNE,22,0.0,0.0,48,0.00,,,0.00,Weather View 32 v70,2013-05-02 03:49:00,
2013-05-01 19:54:00,45.5,26.9,29.80,NNE,22,0.0,0.0,48,0.00,,,0.00,Weather View 32 v70,2013-05-02 03:54:00,
2013-05-01 19:59:00,45.5,26.9,29.80,NNE,22,0.0,0.0,48,0.00,,,0.00,Weather View 32 v70,2013-05-02 03:59:00,
2013-05-01 20:01:00,45.1,26.6,29.80,NNE,22,0.0,0.0,48,0.00,,,0.00,Weather View 32 v70,2013-05-02 04:01:00,
2013-05-01 20:06:00,45.0,26.9,29.81,NNE,22,0.0,0.0,49,0.00,,,0.00,Weather View 32 v70,2013-05-02 04:06:00,
2013-05-01 20:11:00,44.4,26.4,29.81,NNE,22,0.0,0.0,49,0.00,,,0.00,Weather View 32 v70,2013-05-02 04:11:00,
2013-05-01 20:16:00,44.2,26.7,29.81,NNE,22,0.0,0.0,50,0.00,,,0.00,Weather View 32 v70,2013-05-02 04:16:00,
2013-05-01 20:21:00,44.4,26.9,29.81,NNE,22,0.0,0.0,50,0.00,,,0.00,Weather View 32 v70,2013-05-02 04:21:00,
2013-05-01 20:26:00,44.1,27.1,29.82,NNE,22,0.0,0.0,51,0.00,,,0.00,Weather View 32 v70,2013-05-02 04:26:00,
2013-05-01 20:31:00,43.7,26.7,29.82,NNE,22,0.0,0.0,51,0.00,,,0.00,Weather View 32 v70,2013-05-02 04:31:00,
2013-05-01 20:36:00,43.5,26.6,29.82,NNE,22,0.0,0.0,51,0.00,,,0.00,Weather View 32 v70,2013-05-02 04:36:00,
2013-05-01 20:41:00,43.3,26.4,29.82,NNE,22,0.0,0.0,51,0.00,,,0.00,Weather View 32 v70,2013-05-02 04:41:00,
2013-05-01 20:46:00,43.3,26.9,29.82,NNE,22,0.0,0.0,52,0.00,,,0.00,Weather View 32 v70,2013-05-02 04:46:00,
2013-05-01 20:51:00,43.0,26.5,29.82,NNE,22,0.0,0.0,52,0.00,,,0.00,Weather View 32 v70,2013-05-02 04:51:00,
2013-05-01 20:56:00,42.8,26.4,29.82,NNE,22,0.0,0.0,52,0.00,,,0.00,Weather View 32 v70,2013-05-02 04:56:00,
2013-05-01 21:01:00,42.6,26.2,29.82,NNE,22,0.0,0.0,52,0.00,,,0.00,Weather View 32 v70,2013-05-02 05:01:00,
2013-05-01 21:06:00,42.3,26.3,29.82,NNE,22,0.0,0.0,53,0.00,,,0.00,Weather View 32 v70,2013-05-02 05:06:00,
2013-05-01 21:11:00,42.3,26.3,29.82,NNE,22,0.0,0.0,53,0.00,,,0.00,Weather View 32 v70,2013-05-02 05:11:00,
2013-05-01 21:16:00,42.1,26.2,29.82,NNE,22,0.0,0.0,53,0.00,,,0.00,Weather View 32 v70,2013-05-02 05:16:00,
2013-05-01 21:21:00,41.9,26.0,29.82,NNE,22,0.0,0.0,53,0.00,,,0.00,Weather View 32 v70,2013-05-02 05:21:00,
2013-05-01 21:26:00,41.9,26.0,29.83,NNE,22,0.0,0.0,53,0.00,,,0.00,Weather View 32 v70,2013-05-02 05:26:00,
2013-05-01 21:31:00,41.7,26.3,29.83,NNE,22,0.0,0.0,54,0.00,,,0.00,Weather View 32 v70,2013-05-02 05:31:00,
2013-05-01 21:36:00,41.4,26.8,29.83,NNE,22,0.0,0.0,56,0.00,,,0.00,Weather View 32 v70,2013-05-02 05:36:00,
2013-05-01 21:41:00,41.2,27.1,29.83,NNE,22,0.0,0.0,57,0.00,,,0.00,Weather View 32 v70,2013-05-02 05:41:00,
2013-05-01 21:46:00,41.2,27.1,29.84,NNE,22,0.0,0.0,57,0.00,,,0.00,Weather View 32 v70,2013-05-02 05:46:00,
2013-05-01 21:51:00,40.8,26.7,29.84,NNE,22,0.0,0.0,57,0.00,,,0.00,Weather View 32 v70,2013-05-02 05:51:00,
2013-05-01 21:56:00,40.5,26.8,29.84,NNE,22,0.0,0.0,58,0.00,,,0.00,Weather View 32 v70,2013-05-02 05:56:00,
2013-05-01 22:01:00,40.5,26.8,29.84,NNE,22,0.0,0.0,58,0.00,,,0.00,Weather View 32 v70,2013-05-02 06:01:00,
2013-05-01 22:06:00,39.9,27.1,29.85,NNE,22,0.0,0.0,60,0.00,,,0.00,Weather View 32 v70,2013-05-02 06:06:00,
2013-05-01 22:11:00,39.7,27.0,29.85,NNE,22,0.0,0.0,60,0.00,,,0.00,Weather View 32 v70,2013-05-02 06:11:00,
2013-05-01 22:16:00,39.7,27.0,29.85,NNE,22,0.0,0.0,60,0.00,,,0.00,Weather View 32 v70,2013-05-02 06:16:00,
2013-05-01 22:21:00,39.2,27.3,29.85,NNE,22,0.0,0.0,62,0.00,,,0.00,Weather View 32 v70,2013-05-02 06:21:00,
2013-05-01 22:26:00,39.0,27.9,29.83,NNE,22,0.0,0.0,64,0.00,,,0.00,Weather View 32 v70,2013-05-02 06:26:00,
2013-05-01 22:31:00,38.8,27.7,29.83,NNE,22,0.0,0.0,64,0.00,,,0.00,Weather View 32 v70,2013-05-02 06:31:00,
2013-05-01 22:36:00,38.5,27.4,29.83,NNE,22,0.0,0.0,64,0.00,,,0.00,Weather View 32 v70,2013-05-02 06:36:00,
2013-05-01 22:41:00,38.7,27.9,29.83,NNE,22,0.0,0.0,65,0.00,,,0.00,Weather View 32 v70,2013-05-02 06:41:00,
2013-05-01 22:46:00,38.3,27.9,29.83,NNE,22,0.0,0.0,66,0.00,,,0.00,Weather View 32 v70,2013-05-02 06:46:00,
2013-05-01 22:51:00,37.9,27.6,29.83,NNE,22,0.0,0.0,66,0.00,,,0.00,Weather View 32 v70,2013-05-02 06:51:00,
2013-05-01 22:57:00,37.8,27.4,29.83,NNE,22,0.0,0.0,66,0.00,,,0.00,Weather View 32 v70,2013-05-02 06:57:00,
2013-05-01 23:02:00,37.6,28.0,29.83,NNE,22,0.0,0.0,68,0.00,,,0.00,Weather View 32 v70,2013-05-02 07:02:00,
2013-05-01 23:07:00,37.4,27.8,29.83,NNE,22,0.0,0.0,68,0.00,,,0.00,Weather View 32 v70,2013-05-02 07:07:00,
2013-05-01 23:12:00,37.0,27.5,29.83,NNE,22,0.0,0.0,68,0.00,,,0.00,Weather View 32 v70,2013-05-02 07:12:00,
2013-05-01 23:17:00,37.2,28.0,29.83,NNE,22,0.0,0.0,69,0.00,,,0.00,Weather View 32 v70,2013-05-02 07:17:00,
2013-05-01 23:22:00,36.9,28.0,29.83,NNE,22,0.0,0.0,70,0.00,,,0.00,Weather View 32 v70,2013-05-02 07:22:00,
2013-05-01 23:27:00,36.9,28.0,29.83,NNE,22,0.0,0.0,70,0.00,,,0.00,Weather View 32 v70,2013-05-02 07:27:00,
2013-05-01 23:32:00,36.7,28.2,29.83,NNE,22,0.0,0.0,71,0.00,,,0.00,Weather View 32 v70,2013-05-02 07:32:00,
2013-05-01 23:37:00,36.5,27.3,29.83,NNE,22,0.0,0.0,69,0.00,,,0.00,Weather View 32 v70,2013-05-02 07:37:00,
2013-05-01 23:42:00,36.5,28.0,29.83,NNE,22,0.0,0.0,71,0.00,,,0.00,Weather View 32 v70,2013-05-02 07:42:00,
2013-05-01 23:47:00,36.3,27.5,29.84,NNE,22,0.0,0.0,70,0.00,,,0.00,Weather View 32 v70,2013-05-02 07:47:00,
2013-05-01 23:52:00,36.1,28.0,29.84,NNE,22,0.0,0.0,72,0.00,,,0.00,Weather View 32 v70,2013-05-02 07:52:00,
2013-05-01 23:57:00,36.1,28.0,29.84,NNE,22,0.0,0.0,72,0.00,,,0.00,Weather View 32 v70,2013-05-02 07:57:00,